Time;durP1;ratioP1;P1;durP2;ratioP2;P2;SDS_P1;SDS_P2;PMS_P1;PMS_P2;Temp;Humidity;BMP_temperature;BMP_pressure;BME280_temperature;BME280_humidity;BME280_pressure;Samples;Min_cycle;Max_cycle;Signal;HPM_P1;HPM_P2
2023/05/29 00:01:27;;;;;;;7.07;4.90;;;;;;;;;;5093120;28;20092;-62
2023/05/29 00:03:53;;;;;;;8.13;4.55;;;;;;;;;;5093162;28;20032;-60
2023/05/29 00:06:21;;;;;;;5.90;4.75;;;;;;;;;;5092824;28;20020;-61
2023/05/29 00:08:46;;;;;;;5.32;4.30;;;;;;;;;;5092956;28;20028;-60
2023/05/29 00:11:13;;;;;;;5.88;4.68;;;;;;;;;;5093050;28;20020;-68
2023/05/29 00:13:39;;;;;;;7.55;4.30;;;;;;;;;;5092822;28;20024;-67
2023/05/29 00:16:05;;;;;;;5.93;4.88;;;;;;;;;;5092747;28;20039;-68
2023/05/29 00:18:31;;;;;;;7.72;4.38;;;;;;;;;;5093077;28;20028;-68
2023/05/29 00:20:57;;;;;;;6.68;4.60;;;;;;;;;;5092602;28;20031;-67
2023/05/29 00:23:23;;;;;;;7.93;4.97;;;;;;;;;;5093068;28;20024;-67
2023/05/29 00:25:48;;;;;;;6.15;4.20;;;;;;;;;;5092792;28;20031;-61
2023/05/29 00:28:14;;;;;;;5.05;4.38;;;;;;;;;;5092878;28;20030;-61
2023/05/29 00:30:39;;;;;;;6.53;4.45;;;;;;;;;;5092520;28;20550;-61
2023/05/29 00:33:05;;;;;;;4.80;4.03;;;;;;;;;;5092742;28;20115;-64
2023/05/29 00:35:31;;;;;;;7.70;4.28;;;;;;;;;;5092669;28;20416;-63
2023/05/29 00:37:57;;;;;;;5.18;4.22;;;;;;;;;;5092361;28;20052;-62
2023/05/29 00:40:23;;;;;;;5.13;4.45;;;;;;;;;;5092480;28;20080;-62
2023/05/29 00:42:49;;;;;;;5.07;4.18;;;;;;;;;;5093116;28;20095;-62
2023/05/29 00:45:15;;;;;;;4.38;3.97;;;;;;;;;;5092876;28;20021;-60
2023/05/29 00:47:41;;;;;;;7.70;4.60;;;;;;;;;;5092471;28;20406;-62
2023/05/29 00:50:10;;;;;;;7.57;4.55;;;;;;;;;;5092509;28;20039;-62
2023/05/29 00:52:37;;;;;;;5.95;4.50;;;;;;;;;;5092501;28;20012;-62
2023/05/29 00:55:04;;;;;;;7.07;4.50;;;;;;;;;;5092720;28;20069;-62
2023/05/29 00:57:30;;;;;;;8.15;4.32;;;;;;;;;;5092388;28;20035;-62
2023/05/29 00:59:57;;;;;;;6.82;4.57;;;;;;;;;;5092242;28;20032;-62
2023/05/29 01:02:23;;;;;;;8.20;4.38;;;;;;;;;;5092341;28;20035;-62
2023/05/29 01:04:48;;;;;;;8.05;4.60;;;;;;;;;;5092613;28;20106;-62
2023/05/29 01:07:15;;;;;;;5.25;4.00;;;;;;;;;;5090975;28;20490;-64
2023/05/29 01:09:42;;;;;;;6.57;4.70;;;;;;;;;;5092353;28;20156;-62
2023/05/29 01:12:31;;;;;;;4.28;3.67;;;;;;;;;;5092309;28;20031;-62
2023/05/29 01:15:31;;;;;;;7.60;3.97;;;;;;;;;;5092660;28;20028;-67
2023/05/29 01:18:22;;;;;;;8.02;4.93;;;;;;;;;;5092361;28;20059;-62
2023/05/29 01:21:21;;;;;;;7.53;4.32;;;;;;;;;;5092240;28;20536;-62
2023/05/29 01:24:04;;;;;;;5.10;4.55;;;;;;;;;;5090674;28;20500;-63
2023/05/29 01:26:52;;;;;;;5.88;4.65;;;;;;;;;;5092299;28;20027;-68
2023/05/29 01:29:21;;;;;;;5.93;4.38;;;;;;;;;;5092288;28;20119;-68
2023/05/29 01:31:47;;;;;;;6.03;4.33;;;;;;;;;;5092271;28;20379;-67
2023/05/29 01:34:13;;;;;;;6.28;4.45;;;;;;;;;;5092197;28;20502;-68
2023/05/29 01:36:39;;;;;;;7.18;4.28;;;;;;;;;;5090906;28;20028;-69
2023/05/29 01:39:05;;;;;;;7.88;4.10;;;;;;;;;;5091827;28;20051;-65
2023/05/29 01:41:31;;;;;;;5.05;4.25;;;;;;;;;;5092131;28;20028;-68
2023/05/29 01:43:59;;;;;;;6.45;4.55;;;;;;;;;;5092283;28;20070;-62
2023/05/29 01:46:27;;;;;;;5.32;4.13;;;;;;;;;;5092099;28;20052;-61
2023/05/29 01:48:55;;;;;;;5.50;3.97;;;;;;;;;;5092274;28;20032;-61
2023/05/29 01:51:20;;;;;;;5.45;4.47;;;;;;;;;;5092261;28;20020;-61
2023/05/29 01:53:46;;;;;;;6.43;4.40;;;;;;;;;;5091948;28;20038;-62
2023/05/29 01:56:12;;;;;;;8.88;4.68;;;;;;;;;;5092009;28;20016;-62
2023/05/29 01:58:41;;;;;;;5.38;4.35;;;;;;;;;;5091736;28;20483;-62
2023/05/29 02:01:07;;;;;;;5.25;4.30;;;;;;;;;;5091640;28;20040;-62
2023/05/29 02:03:33;;;;;;;7.95;4.05;;;;;;;;;;5094436;28;20099;-62
2023/05/29 02:06:00;;;;;;;6.40;4.55;;;;;;;;;;5095492;28;20031;-62
2023/05/29 02:08:26;;;;;;;5.47;3.97;;;;;;;;;;5095590;28;20404;-62
2023/05/29 02:10:52;;;;;;;5.07;4.20;;;;;;;;;;5095282;28;20020;-61
2023/05/29 02:13:17;;;;;;;5.78;4.85;;;;;;;;;;5095189;28;20039;-63
2023/05/29 02:15:43;;;;;;;4.93;4.20;;;;;;;;;;5095549;28;20039;-61
2023/05/29 02:18:14;;;;;;;9.25;4.30;;;;;;;;;;5095164;28;20382;-62
2023/05/29 02:20:41;;;;;;;6.72;4.68;;;;;;;;;;5095080;28;20028;-62
2023/05/29 02:23:10;;;;;;;6.22;4.68;;;;;;;;;;5094961;28;20024;-62
2023/05/29 02:25:35;;;;;;;5.38;4.45;;;;;;;;;;5095360;28;20379;-61
2023/05/29 02:28:02;;;;;;;5.07;4.03;;;;;;;;;;5094997;28;20024;-62
2023/05/29 02:30:28;;;;;;;5.90;4.10;;;;;;;;;;5095181;28;20035;-62
2023/05/29 02:32:53;;;;;;;5.05;4.22;;;;;;;;;;5094906;28;20028;-65
2023/05/29 02:35:22;;;;;;;5.72;4.10;;;;;;;;;;5094970;28;20035;-62
2023/05/29 02:37:47;;;;;;;4.90;4.20;;;;;;;;;;5094570;28;20075;-61
2023/05/29 02:40:13;;;;;;;5.28;4.35;;;;;;;;;;5094730;28;20064;-62
2023/05/29 02:42:38;;;;;;;4.90;4.00;;;;;;;;;;5094721;28;20074;-61
2023/05/29 02:45:05;;;;;;;4.40;4.00;;;;;;;;;;5095025;28;20020;-61
2023/05/29 02:47:30;;;;;;;5.50;4.38;;;;;;;;;;5094636;28;20053;-62
2023/05/29 02:49:56;;;;;;;4.80;3.92;;;;;;;;;;5094572;28;20107;-62
2023/05/29 02:52:22;;;;;;;11.80;4.82;;;;;;;;;;5094601;28;20035;-62
2023/05/29 02:54:48;;;;;;;4.88;4.13;;;;;;;;;;5094513;28;20032;-62
2023/05/29 02:57:14;;;;;;;5.90;4.40;;;;;;;;;;5094717;28;20068;-69
2023/05/29 02:59:40;;;;;;;5.32;4.03;;;;;;;;;;5094381;28;20028;-69
2023/05/29 03:02:06;;;;;;;5.43;3.90;;;;;;;;;;5094432;28;20485;-69
2023/05/29 03:04:32;;;;;;;5.28;4.00;;;;;;;;;;5094372;28;20070;-68
2023/05/29 03:06:57;;;;;;;5.47;4.20;;;;;;;;;;5094257;28;20161;-67
2023/05/29 03:09:23;;;;;;;4.88;3.85;;;;;;;;;;5094275;28;20060;-69
2023/05/29 03:11:50;;;;;;;4.85;3.88;;;;;;;;;;5094383;28;20021;-67
2023/05/29 03:14:16;;;;;;;6.32;4.18;;;;;;;;;;5094314;28;20021;-61
2023/05/29 03:16:43;;;;;;;5.10;3.83;;;;;;;;;;5094321;28;20103;-61
2023/05/29 03:19:08;;;;;;;8.07;4.45;;;;;;;;;;5093989;28;20030;-61
2023/05/29 03:21:35;;;;;;;4.38;3.97;;;;;;;;;;5094033;28;20118;-61
2023/05/29 03:24:02;;;;;;;4.47;3.80;;;;;;;;;;5094288;28;20024;-62
2023/05/29 03:26:28;;;;;;;4.70;4.18;;;;;;;;;;5093848;28;20479;-62
2023/05/29 03:28:54;;;;;;;4.30;3.88;;;;;;;;;;5092623;28;20039;-61
2023/05/29 03:31:19;;;;;;;5.70;4.53;;;;;;;;;;5094070;28;20044;-62
2023/05/29 03:33:45;;;;;;;4.65;4.00;;;;;;;;;;5092521;28;20590;-62
2023/05/29 03:36:11;;;;;;;7.15;4.07;;;;;;;;;;5093862;28;20111;-66
2023/05/29 03:38:36;;;;;;;4.38;3.97;;;;;;;;;;5093477;28;20040;-62
2023/05/29 03:41:02;;;;;;;4.50;3.92;;;;;;;;;;5093550;28;20422;-62
2023/05/29 03:43:28;;;;;;;4.35;3.92;;;;;;;;;;5093576;28;20020;-62
2023/05/29 03:45:53;;;;;;;4.75;3.97;;;;;;;;;;5093451;28;20031;-61
2023/05/29 03:48:19;;;;;;;5.63;3.88;;;;;;;;;;5093425;28;20031;-61
2023/05/29 03:50:46;;;;;;;5.85;3.90;;;;;;;;;;5093323;28;20027;-68
2023/05/29 03:53:12;;;;;;;4.22;3.83;;;;;;;;;;5093692;28;20028;-65
2023/05/29 03:55:38;;;;;;;5.07;4.00;;;;;;;;;;5093362;28;20593;-62
2023/05/29 03:58:03;;;;;;;5.43;4.93;;;;;;;;;;5093599;28;20065;-62
2023/05/29 04:00:29;;;;;;;4.35;3.95;;;;;;;;;;5093203;28;20038;-64
2023/05/29 04:02:56;;;;;;;4.13;3.75;;;;;;;;;;5093271;28;20020;-62
2023/05/29 04:05:21;;;;;;;4.97;4.22;;;;;;;;;;5093123;28;20035;-62
2023/05/29 04:07:47;;;;;;;4.22;3.83;;;;;;;;;;5093154;28;20027;-61
2023/05/29 04:10:13;;;;;;;5.22;3.63;;;;;;;;;;5093340;28;20024;-68
2023/05/29 04:12:39;;;;;;;4.60;4.00;;;;;;;;;;5093051;28;20423;-62
2023/05/29 04:15:05;;;;;;;5.03;4.22;;;;;;;;;;5093234;28;20047;-61
2023/05/29 04:17:31;;;;;;;4.45;3.60;;;;;;;;;;5093322;28;20020;-62
2023/05/29 04:19:56;;;;;;;5.10;3.88;;;;;;;;;;5092903;28;20540;-65
2023/05/29 04:22:22;;;;;;;5.93;4.45;;;;;;;;;;5092899;28;20024;-62
2023/05/29 04:24:47;;;;;;;5.30;4.07;;;;;;;;;;5092615;28;20024;-62
2023/05/29 04:27:13;;;;;;;5.53;4.30;;;;;;;;;;5092596;28;20077;-61
2023/05/29 04:29:42;;;;;;;3.70;3.40;;;;;;;;;;5093014;28;20058;-68
2023/05/29 04:32:11;;;;;;;4.60;4.03;;;;;;;;;;5092816;28;20032;-68
2023/05/29 04:34:38;;;;;;;4.28;3.88;;;;;;;;;;5091401;28;20030;-68
2023/05/29 04:37:04;;;;;;;4.60;3.70;;;;;;;;;;5092650;28;20047;-69
2023/05/29 04:39:31;;;;;;;4.53;4.00;;;;;;;;;;5092390;28;20411;-68
2023/05/29 04:41:58;;;;;;;4.22;3.83;;;;;;;;;;5092586;28;20020;-69
2023/05/29 04:44:28;;;;;;;4.68;3.78;;;;;;;;;;5092887;28;20043;-61
2023/05/29 04:46:54;;;;;;;;;;;;;;;;;;5093354;28;20012;-62
2023/05/29 04:49:20;;;;;;;4.45;4.03;;;;;;;;;;5092453;28;19912;-62
2023/05/29 04:51:46;;;;;;;5.28;3.83;;;;;;;;;;5092850;28;20020;-61
2023/05/29 04:54:12;;;;;;;4.97;4.05;;;;;;;;;;5092409;28;20031;-62
2023/05/29 04:56:40;;;;;;;6.72;4.22;;;;;;;;;;5092833;28;20062;-61
2023/05/29 04:59:06;;;;;;;3.97;3.58;;;;;;;;;;5092403;28;20052;-62
2023/05/29 05:01:33;;;;;;;4.53;4.00;;;;;;;;;;5092392;28;20024;-61
2023/05/29 05:03:59;;;;;;;4.35;3.95;;;;;;;;;;5092384;28;20024;-62
2023/05/29 05:06:25;;;;;;;4.38;3.60;;;;;;;;;;5092285;28;20467;-68
2023/05/29 05:08:53;;;;;;;4.15;3.75;;;;;;;;;;5092649;28;20020;-61
2023/05/29 05:11:22;;;;;;;4.53;4.00;;;;;;;;;;5092337;28;20028;-61
2023/05/29 05:13:48;;;;;;;4.05;3.58;;;;;;;;;;5092459;28;20032;-63
2023/05/29 05:16:13;;;;;;;5.38;3.55;;;;;;;;;;5092280;28;20540;-62
2023/05/29 05:18:39;;;;;;;3.97;3.58;;;;;;;;;;5092408;28;20036;-63
2023/05/29 05:21:05;;;;;;;5.25;3.60;;;;;;;;;;5092574;28;20757;-66
2023/05/29 05:23:31;;;;;;;4.95;3.78;;;;;;;;;;5090894;28;20479;-62
2023/05/29 05:25:56;;;;;;;4.68;3.90;;;;;;;;;;5092497;28;20201;-68
2023/05/29 05:28:22;;;;;;;4.25;3.85;;;;;;;;;;5092399;28;20120;-61
2023/05/29 05:30:47;;;;;;;4.53;3.72;;;;;;;;;;5092181;28;20482;-63
2023/05/29 05:33:13;;;;;;;4.45;3.88;;;;;;;;;;5092150;28;20421;-65
2023/05/29 05:35:39;;;;;;;3.63;3.28;;;;;;;;;;5092167;28;20371;-68
2023/05/29 05:38:04;;;;;;;4.13;3.70;;;;;;;;;;5093603;28;20483;-62
2023/05/29 05:40:30;;;;;;;4.10;3.60;;;;;;;;;;5095855;28;20024;-64
2023/05/29 05:42:55;;;;;;;5.65;4.00;;;;;;;;;;5095928;28;20447;-69
2023/05/29 05:45:21;;;;;;;3.80;3.40;;;;;;;;;;5096143;28;20506;-68
2023/05/29 05:47:47;;;;;;;4.07;3.45;;;;;;;;;;5096063;28;20039;-68
2023/05/29 05:50:12;;;;;;;4.28;3.88;;;;;;;;;;5095779;28;20024;-69
2023/05/29 05:52:38;;;;;;;6.65;3.97;;;;;;;;;;5095631;28;20024;-69
2023/05/29 05:55:04;;;;;;;4.90;4.10;;;;;;;;;;5096025;28;20074;-69
2023/05/29 05:57:32;;;;;;;4.45;3.92;;;;;;;;;;5095533;28;20356;-69
2023/05/29 05:59:58;;;;;;;4.43;3.92;;;;;;;;;;5095391;28;20032;-62
2023/05/29 06:02:24;;;;;;;4.35;3.63;;;;;;;;;;5095561;28;20024;-67
2023/05/29 06:04:49;;;;;;;4.95;3.97;;;;;;;;;;5095505;28;20103;-62
2023/05/29 06:07:15;;;;;;;3.95;3.42;;;;;;;;;;5095415;28;20154;-62
2023/05/29 06:09:41;;;;;;;4.90;3.90;;;;;;;;;;5095350;28;20032;-62
2023/05/29 06:12:08;;;;;;;5.65;4.20;;;;;;;;;;5095533;28;20032;-62
2023/05/29 06:14:34;;;;;;;3.80;3.38;;;;;;;;;;5095539;28;20032;-68
2023/05/29 06:17:00;;;;;;;7.40;3.70;;;;;;;;;;5095528;28;20424;-69
2023/05/29 06:19:25;;;;;;;5.57;3.95;;;;;;;;;;5095062;28;20031;-63
2023/05/29 06:21:51;;;;;;;4.57;3.90;;;;;;;;;;5095180;28;20020;-62
2023/05/29 06:24:16;;;;;;;4.00;3.67;;;;;;;;;;5095019;28;20055;-62
2023/05/29 06:26:42;;;;;;;3.90;3.60;;;;;;;;;;5094920;28;20028;-62
2023/05/29 06:29:07;;;;;;;4.97;3.70;;;;;;;;;;5095244;28;20024;-62
2023/05/29 06:31:33;;;;;;;4.28;3.60;;;;;;;;;;5095198;28;20112;-62
2023/05/29 06:33:59;;;;;;;4.72;3.83;;;;;;;;;;5094788;28;20064;-62
2023/05/29 06:36:25;;;;;;;5.20;3.65;;;;;;;;;;5095071;28;20020;-62
2023/05/29 06:38:51;;;;;;;4.55;3.70;;;;;;;;;;5094346;28;20032;-62
2023/05/29 06:41:17;;;;;;;4.53;3.80;;;;;;;;;;5094725;28;20027;-62
2023/05/29 06:43:43;;;;;;;5.47;4.22;;;;;;;;;;5094525;28;20115;-62
2023/05/29 06:46:08;;;;;;;3.72;3.42;;;;;;;;;;5094933;28;20110;-61
2023/05/29 06:48:35;;;;;;;4.88;3.78;;;;;;;;;;5094145;28;20521;-62
2023/05/29 06:51:08;;;;;;;4.05;3.58;;;;;;;;;;5094622;28;20024;-62
2023/05/29 06:53:37;;;;;;;4.50;3.72;;;;;;;;;;5094609;28;20032;-62
2023/05/29 06:56:02;;;;;;;4.15;3.75;;;;;;;;;;5094779;28;20361;-62
2023/05/29 06:58:28;;;;;;;4.45;3.67;;;;;;;;;;5093104;28;20081;-62
2023/05/29 07:00:53;;;;;;;4.65;3.47;;;;;;;;;;5094382;28;20040;-68
2023/05/29 07:03:19;;;;;;;4.28;3.60;;;;;;;;;;5094236;28;20034;-66
2023/05/29 07:05:44;;;;;;;5.32;3.92;;;;;;;;;;5094517;28;20161;-63
2023/05/29 07:08:10;;;;;;;4.90;3.53;;;;;;;;;;5094241;28;20027;-63
2023/05/29 07:10:35;;;;;;;4.93;3.65;;;;;;;;;;5094220;28;20032;-68
2023/05/29 07:13:01;;;;;;;4.32;3.92;;;;;;;;;;5094070;28;20107;-68
2023/05/29 07:15:26;;;;;;;4.03;3.50;;;;;;;;;;5094108;28;20031;-66
2023/05/29 07:17:52;;;;;;;3.92;3.42;;;;;;;;;;5094204;28;20054;-63
2023/05/29 07:20:19;;;;;;;5.38;4.15;;;;;;;;;;5094213;28;20039;-63
2023/05/29 07:22:45;;;;;;;4.35;3.53;;;;;;;;;;5094056;28;20036;-62
2023/05/29 07:25:11;;;;;;;4.03;3.63;;;;;;;;;;5093969;28;20039;-63
2023/05/29 07:27:37;;;;;;;4.88;3.65;;;;;;;;;;5094151;28;20282;-64
2023/05/29 07:30:04;;;;;;;4.30;3.90;;;;;;;;;;5094132;28;20107;-62
2023/05/29 07:32:30;;;;;;;5.03;4.03;;;;;;;;;;5093940;28;20218;-62
2023/05/29 07:34:56;;;;;;;3.97;3.67;;;;;;;;;;5094016;28;20024;-66
2023/05/29 07:37:21;;;;;;;3.97;3.47;;;;;;;;;;5093662;28;20059;-69
2023/05/29 07:39:47;;;;;;;3.55;3.25;;;;;;;;;;5093709;28;20040;-63
2023/05/29 07:42:12;;;;;;;3.88;3.50;;;;;;;;;;5093867;28;20028;-63
2023/05/29 07:44:38;;;;;;;4.20;3.80;;;;;;;;;;5093590;28;20459;-69
2023/05/29 07:47:04;;;;;;;4.13;3.45;;;;;;;;;;5093483;28;20027;-70
2023/05/29 07:49:30;;;;;;;4.65;3.65;;;;;;;;;;5093790;28;20020;-66
2023/05/29 07:51:55;;;;;;;4.10;3.70;;;;;;;;;;5093563;28;20028;-70
2023/05/29 07:54:22;;;;;;;4.07;3.38;;;;;;;;;;5093604;28;20496;-62
2023/05/29 07:56:48;;;;;;;4.30;3.90;;;;;;;;;;5093147;28;20089;-64
2023/05/29 07:59:13;;;;;;;3.78;3.45;;;;;;;;;;5093346;28;20422;-67
2023/05/29 08:01:39;;;;;;;4.10;3.72;;;;;;;;;;5092355;28;20031;-68
2023/05/29 08:04:05;;;;;;;4.20;3.47;;;;;;;;;;5091766;28;20032;-69
2023/05/29 08:06:34;;;;;;;4.32;3.60;;;;;;;;;;5093307;28;20455;-62
2023/05/29 08:08:59;;;;;;;3.67;3.38;;;;;;;;;;5092935;28;20471;-64
2023/05/29 08:11:25;;;;;;;4.43;3.70;;;;;;;;;;5092832;28;20032;-69
2023/05/29 08:13:50;;;;;;;5.80;3.60;;;;;;;;;;5092997;28;20080;-68
2023/05/29 08:16:16;;;;;;;4.15;3.75;;;;;;;;;;5091623;28;20024;-62
2023/05/29 08:18:42;;;;;;;4.57;3.83;;;;;;;;;;5093070;28;20028;-66
2023/05/29 08:21:09;;;;;;;4.05;3.58;;;;;;;;;;5091482;28;20028;-62
2023/05/29 08:23:35;;;;;;;3.60;3.30;;;;;;;;;;5092835;28;20020;-63
2023/05/29 08:26:02;;;;;;;4.35;3.53;;;;;;;;;;5092706;28;20467;-62
2023/05/29 08:28:28;;;;;;;4.95;3.72;;;;;;;;;;5092756;28;20024;-62
2023/05/29 08:30:54;;;;;;;4.68;3.83;;;;;;;;;;5092920;28;20100;-63
2023/05/29 08:33:19;;;;;;;3.97;3.58;;;;;;;;;;5092670;28;20031;-62
2023/05/29 08:35:45;;;;;;;4.57;3.78;;;;;;;;;;5092674;28;20031;-67
2023/05/29 08:38:10;;;;;;;3.75;3.45;;;;;;;;;;5092487;28;20089;-63
2023/05/29 08:40:36;;;;;;;4.30;3.85;;;;;;;;;;5092554;28;20054;-62
2023/05/29 08:43:37;;;;;;;4.03;3.72;;;;;;;;;;5092664;28;20024;-62
2023/05/29 08:46:03;;;;;;;3.97;3.58;;;;;;;;;;5087537;28;20509;-62
2023/05/29 08:48:30;;;;;;;4.00;3.58;;;;;;;;;;5092805;28;20383;-63
2023/05/29 08:50:58;;;;;;;4.85;3.60;;;;;;;;;;5091252;28;20028;-63
2023/05/29 08:53:25;;;;;;;4.35;3.72;;;;;;;;;;5092436;28;20024;-64
2023/05/29 08:55:52;;;;;;;4.90;3.90;;;;;;;;;;5092481;28;20020;-62
2023/05/29 08:58:20;;;;;;;4.13;3.70;;;;;;;;;;5092438;28;20035;-63
2023/05/29 09:00:48;;;;;;;4.47;3.58;;;;;;;;;;5092432;28;20046;-70
2023/05/29 09:03:14;;;;;;;4.10;3.63;;;;;;;;;;5092495;28;20023;-69
2023/05/29 09:05:40;;;;;;;4.20;3.80;;;;;;;;;;5092571;28;20020;-68
2023/05/29 09:08:10;;;;;;;5.22;3.67;;;;;;;;;;5092459;28;20468;-69
2023/05/29 09:10:36;;;;;;;5.20;3.88;;;;;;;;;;5092633;28;20035;-70
2023/05/29 09:13:02;;;;;;;3.85;3.30;;;;;;;;;;5096155;28;20349;-70
2023/05/29 09:15:27;;;;;;;4.28;3.88;;;;;;;;;;5096398;28;20555;-64
2023/05/29 09:17:57;;;;;;;3.83;3.33;;;;;;;;;;5096361;28;20020;-62
2023/05/29 09:20:24;;;;;;;5.47;3.65;;;;;;;;;;5096201;28;20028;-63
2023/05/29 09:22:57;;;;;;;5.35;4.00;;;;;;;;;;5096146;28;20623;-62
2023/05/29 09:25:27;;;;;;;4.05;3.65;;;;;;;;;;5096381;28;20371;-66
2023/05/29 09:28:07;;;;;;;5.60;3.80;;;;;;;;;;5092324;28;20039;-62
2023/05/29 09:30:36;;;;;;;4.07;3.67;;;;;;;;;;5090441;28;20145;-62
2023/05/29 09:33:03;;;;;;;5.55;4.07;;;;;;;;;;5090208;28;20028;-61
2023/05/29 09:35:35;;;;;;;4.32;3.65;;;;;;;;;;5091232;28;20036;-66
2023/05/29 09:38:01;;;;;;;4.63;3.80;;;;;;;;;;5090632;28;20060;-65
2023/05/29 09:40:30;;;;;;;4.30;3.90;;;;;;;;;;5091406;28;20561;-62
2023/05/29 09:43:04;;;;;;;4.18;3.55;;;;;;;;;;5094735;28;20471;-62
2023/05/29 09:45:30;;;;;;;4.25;3.67;;;;;;;;;;5093703;28;20027;-63
2023/05/29 09:47:56;;;;;;;4.75;3.65;;;;;;;;;;5094613;28;20020;-67
2023/05/29 09:50:26;;;;;;;4.70;4.03;;;;;;;;;;5090913;28;20032;-63
2023/05/29 09:52:53;;;;;;;4.75;3.83;;;;;;;;;;5090256;28;20020;-66
2023/05/29 09:55:23;;;;;;;4.10;3.70;;;;;;;;;;5091259;28;20034;-62
2023/05/29 09:57:49;;;;;;;4.10;3.70;;;;;;;;;;5090175;28;20043;-62
2023/05/29 10:00:18;;;;;;;3.88;3.47;;;;;;;;;;5090277;28;20035;-63
2023/05/29 10:02:43;;;;;;;6.05;3.80;;;;;;;;;;5089632;28;20028;-67
2023/05/29 10:05:11;;;;;;;5.88;3.80;;;;;;;;;;5090417;28;20028;-66
2023/05/29 10:07:40;;;;;;;5.68;4.13;;;;;;;;;;5088616;28;20545;-62
2023/05/29 10:10:09;;;;;;;4.18;3.78;;;;;;;;;;5088140;28;20034;-64
2023/05/29 10:12:41;;;;;;;4.25;3.85;;;;;;;;;;5088310;28;20423;-64
2023/05/29 10:15:14;;;;;;;4.65;3.72;;;;;;;;;;5088342;28;20424;-62
2023/05/29 10:17:49;;;;;;;4.35;3.92;;;;;;;;;;5088205;28;20024;-63
2023/05/29 10:20:16;;;;;;;5.20;4.20;;;;;;;;;;5088650;28;20067;-63
2023/05/29 10:22:46;;;;;;;4.30;3.90;;;;;;;;;;5088784;28;20059;-65
2023/05/29 10:25:17;;;;;;;4.75;3.97;;;;;;;;;;5088558;28;20035;-65
2023/05/29 10:27:43;;;;;;;4.32;3.80;;;;;;;;;;5089752;28;20035;-62
2023/05/29 10:30:20;;;;;;;3.70;3.35;;;;;;;;;;5088519;28;20024;-64
2023/05/29 10:33:22;;;;;;;5.13;3.65;;;;;;;;;;5089658;28;20028;-62
2023/05/29 10:35:57;;;;;;;4.85;4.10;;;;;;;;;;5089253;28;20028;-67
2023/05/29 10:38:24;;;;;;;4.55;3.65;;;;;;;;;;5091297;28;20040;-65
2023/05/29 10:40:50;;;;;;;4.65;3.97;;;;;;;;;;5090906;28;20039;-64
2023/05/29 10:43:44;;;;;;;7.03;4.00;;;;;;;;;;5093410;28;20024;-63
2023/05/29 10:46:09;;;;;;;7.35;3.72;;;;;;;;;;5092494;28;20121;-63
2023/05/29 10:48:42;;;;;;;3.92;3.63;;;;;;;;;;5093718;28;20070;-64
2023/05/29 10:51:09;;;;;;;11.25;3.60;;;;;;;;;;5092551;28;20048;-64
2023/05/29 10:53:39;;;;;;;5.18;4.25;;;;;;;;;;5091039;28;20510;-69
2023/05/29 10:56:09;;;;;;;7.32;3.67;;;;;;;;;;5094527;28;20580;-65
2023/05/29 10:58:34;;;;;;;6.27;3.67;;;;;;;;;;5094681;28;20072;-63
2023/05/29 11:01:00;;;;;;;4.38;3.67;;;;;;;;;;5093964;28;20580;-63
2023/05/29 11:03:32;;;;;;;4.07;3.65;;;;;;;;;;5093777;28;20479;-63
2023/05/29 11:06:07;;;;;;;4.95;3.88;;;;;;;;;;5093168;28;20035;-63
2023/05/29 11:08:44;;;;;;;5.30;3.35;;;;;;;;;;5091614;28;20020;-65
2023/05/29 11:11:12;;;;;;;4.20;3.80;;;;;;;;;;5093832;28;20032;-66
2023/05/29 11:13:40;;;;;;;4.30;3.80;;;;;;;;;;5094233;28;20356;-63
2023/05/29 11:16:14;;;;;;;5.35;3.60;;;;;;;;;;5093977;28;20050;-66
2023/05/29 11:18:46;;;;;;;4.75;3.63;;;;;;;;;;5093690;28;20042;-63
2023/05/29 11:21:32;;;;;;;4.45;3.40;;;;;;;;;;5091023;28;20024;-63
2023/05/29 11:24:02;;;;;;;7.20;3.47;;;;;;;;;;5081219;28;20038;-63
2023/05/29 11:26:30;;;;;;;4.75;3.65;;;;;;;;;;5092979;28;20475;-63
2023/05/29 11:29:00;;;;;;;3.88;3.40;;;;;;;;;;5093335;28;20028;-63
2023/05/29 11:31:30;;;;;;;5.05;3.50;;;;;;;;;;5091100;28;20028;-68
2023/05/29 11:33:59;;;;;;;5.90;3.45;;;;;;;;;;5093479;28;20462;-67
2023/05/29 11:36:27;;;;;;;4.88;3.40;;;;;;;;;;5093216;28;20028;-68
2023/05/29 11:38:53;;;;;;;4.05;3.60;;;;;;;;;;5092630;28;20037;-64
2023/05/29 11:41:18;;;;;;;4.57;3.33;;;;;;;;;;5093492;28;20024;-67
2023/05/29 11:43:45;;;;;;;4.30;3.90;;;;;;;;;;5093544;28;20043;-67
2023/05/29 11:46:32;;;;;;;4.45;3.47;;;;;;;;;;5093790;28;20021;-69
2023/05/29 11:49:01;;;;;;;5.20;3.58;;;;;;;;;;5093609;28;20076;-62
2023/05/29 11:51:27;;;;;;;4.07;3.50;;;;;;;;;;5093631;28;20376;-63
2023/05/29 11:53:57;;;;;;;8.10;3.58;;;;;;;;;;5092636;28;20024;-63
2023/05/29 11:56:27;;;;;;;4.00;3.60;;;;;;;;;;5092840;28;20036;-63
2023/05/29 11:58:59;;;;;;;3.80;3.33;;;;;;;;;;5093500;28;20036;-64
2023/05/29 12:01:26;;;;;;;4.32;3.67;;;;;;;;;;5093502;28;20027;-62
2023/05/29 12:03:52;;;;;;;4.75;3.45;;;;;;;;;;5092721;28;20051;-63
2023/05/29 12:06:37;;;;;;;4.07;3.38;;;;;;;;;;5093108;28;20039;-63
2023/05/29 12:09:03;;;;;;;4.03;3.35;;;;;;;;;;5092077;28;20434;-64
2023/05/29 12:11:29;;;;;;;3.92;3.53;;;;;;;;;;5093198;28;20069;-66
2023/05/29 12:13:59;;;;;;;3.72;3.20;;;;;;;;;;5092971;28;20107;-62
2023/05/29 12:16:25;;;;;;;;;;;;;;;;;;5088620;28;20044;-64
2023/05/29 12:18:52;;;;;;;3.88;3.50;;;;;;;;;;5091957;28;19917;-63
2023/05/29 12:21:17;;;;;;;4.95;3.25;;;;;;;;;;5092663;28;20036;-63
2023/05/29 12:23:43;;;;;;;5.43;3.60;;;;;;;;;;5092127;28;20035;-63
2023/05/29 12:26:09;;;;;;;3.33;3.03;;;;;;;;;;5092281;28;20028;-62
2023/05/29 12:28:34;;;;;;;3.33;3.03;;;;;;;;;;5092810;28;20062;-63
2023/05/29 12:31:00;;;;;;;3.80;3.50;;;;;;;;;;5092696;28;20119;-65
2023/05/29 12:33:32;;;;;;;7.40;3.72;;;;;;;;;;5091122;28;20053;-69
2023/05/29 12:36:03;;;;;;;4.80;3.20;;;;;;;;;;5089773;28;20024;-63
2023/05/29 12:38:30;;;;;;;3.97;3.63;;;;;;;;;;5092265;28;20044;-63
2023/05/29 12:40:55;;;;;;;4.85;3.58;;;;;;;;;;5092817;28;20085;-63
2023/05/29 12:43:22;;;;;;;3.58;3.10;;;;;;;;;;5091281;28;20433;-63
2023/05/29 12:45:55;;;;;;;4.25;3.67;;;;;;;;;;5092518;28;20099;-64
2023/05/29 12:48:22;;;;;;;4.05;3.60;;;;;;;;;;5092579;28;20413;-63
2023/05/29 12:50:49;;;;;;;4.53;3.40;;;;;;;;;;5091920;28;20039;-65
2023/05/29 12:53:15;;;;;;;3.47;3.17;;;;;;;;;;5091398;28;20024;-66
2023/05/29 12:55:42;;;;;;;4.70;3.45;;;;;;;;;;5083123;28;20479;-62
2023/05/29 12:58:12;;;;;;;8.73;3.65;;;;;;;;;;5089435;28;20453;-62
2023/05/29 13:00:40;;;;;;;3.75;3.20;;;;;;;;;;5091396;28;20032;-62
2023/05/29 13:03:07;;;;;;;4.68;3.13;;;;;;;;;;5092037;28;20032;-67
2023/05/29 13:05:33;;;;;;;3.50;3.20;;;;;;;;;;5092185;28;20024;-62
2023/05/29 13:07:59;;;;;;;3.80;3.40;;;;;;;;;;5092160;28;20023;-63
2023/05/29 13:10:26;;;;;;;3.45;2.90;;;;;;;;;;5092321;28;20149;-62
2023/05/29 13:12:54;;;;;;;4.82;3.40;;;;;;;;;;5092290;28;20020;-63
2023/05/29 13:15:23;;;;;;;5.30;3.30;;;;;;;;;;5092154;28;20024;-63
2023/05/29 13:17:50;;;;;;;5.53;3.83;;;;;;;;;;5092366;28;20035;-66
2023/05/29 13:20:16;;;;;;;4.60;3.58;;;;;;;;;;5092232;28;20040;-62
2023/05/29 13:22:44;;;;;;;4.50;3.40;;;;;;;;;;5091512;28;20032;-66
2023/05/29 13:25:12;;;;;;;3.75;3.45;;;;;;;;;;5088846;28;20019;-63
2023/05/29 13:27:41;;;;;;;4.88;3.40;;;;;;;;;;5091532;28;20111;-65
2023/05/29 13:30:07;;;;;;;4.22;3.40;;;;;;;;;;5091706;28;20099;-63
2023/05/29 13:32:33;;;;;;;3.65;3.33;;;;;;;;;;5092073;28;20031;-62
2023/05/29 13:34:59;;;;;;;4.00;3.60;;;;;;;;;;5092171;28;20025;-68
2023/05/29 13:37:26;;;;;;;3.83;3.42;;;;;;;;;;5091636;28;20028;-63
2023/05/29 13:39:52;;;;;;;4.78;3.72;;;;;;;;;;5091755;28;20024;-62
2023/05/29 13:42:18;;;;;;;4.32;3.70;;;;;;;;;;5091449;28;20028;-62
2023/05/29 13:44:44;;;;;;;3.80;3.42;;;;;;;;;;5091361;28;20023;-63
2023/05/29 13:47:10;;;;;;;4.50;3.65;;;;;;;;;;5091869;28;20110;-64
2023/05/29 13:49:36;;;;;;;3.80;3.40;;;;;;;;;;5091875;28;20020;-63
2023/05/29 13:52:03;;;;;;;3.83;3.42;;;;;;;;;;5091723;28;20054;-63
2023/05/29 13:54:30;;;;;;;3.72;3.33;;;;;;;;;;5090354;28;20089;-63
2023/05/29 13:56:57;;;;;;;4.32;3.38;;;;;;;;;;5090525;28;20024;-63
2023/05/29 13:59:24;;;;;;;3.67;3.38;;;;;;;;;;5092552;28;20047;-63
2023/05/29 14:01:49;;;;;;;4.55;3.17;;;;;;;;;;5094150;28;20036;-63
2023/05/29 14:04:15;;;;;;;3.55;3.15;;;;;;;;;;5093710;28;20028;-63
2023/05/29 14:06:41;;;;;;;3.42;3.10;;;;;;;;;;5094179;28;20070;-63
2023/05/29 14:09:09;;;;;;;3.40;3.10;;;;;;;;;;5092490;28;20392;-63
2023/05/29 14:11:36;;;;;;;3.47;3.10;;;;;;;;;;5093773;28;20056;-63
2023/05/29 14:14:03;;;;;;;3.75;3.28;;;;;;;;;;5093888;28;20070;-64
2023/05/29 14:16:29;;;;;;;3.85;3.08;;;;;;;;;;5090515;28;20371;-63
2023/05/29 14:18:54;;;;;;;3.60;3.30;;;;;;;;;;5092062;28;20032;-63
2023/05/29 14:21:20;;;;;;;3.58;3.22;;;;;;;;;;5085114;28;20029;-63
2023/05/29 14:23:46;;;;;;;3.63;2.92;;;;;;;;;;5073661;28;20728;-63
2023/05/29 14:26:12;;;;;;;5.90;3.28;;;;;;;;;;5073028;28;20103;-63
2023/05/29 14:28:38;;;;;;;5.03;3.17;;;;;;;;;;5073597;28;20047;-63
2023/05/29 14:31:04;;;;;;;3.70;3.40;;;;;;;;;;5073490;28;20643;-63
2023/05/29 14:33:30;;;;;;;3.67;3.30;;;;;;;;;;5073045;28;20040;-64
2023/05/29 14:35:56;;;;;;;4.03;3.00;;;;;;;;;;5072925;28;20094;-63
2023/05/29 14:38:23;;;;;;;4.65;3.30;;;;;;;;;;5085746;28;20056;-64
2023/05/29 14:40:49;;;;;;;3.95;3.33;;;;;;;;;;5092843;28;20036;-68
2023/05/29 14:43:14;;;;;;;4.18;3.67;;;;;;;;;;5092807;28;20032;-63
2023/05/29 14:45:40;;;;;;;4.93;3.45;;;;;;;;;;5093143;28;20055;-64